KSUA/SUA METAR and TAF weather

Enter ICAO airport designator
Station Type Date Time Source
KSUA METAR 2021/04/14 18:47 UTC NOAA

KSUA 141847Z 11012G18KT 7SM CLR 27/15 A3011


Station Type Date Time Source
KSUA Decoded METAR 2021/04/14 18:47 UTC NOAA

Stuart, Witham Field Airport, FL, United States (KSUA) 27-10-54N 080-13-16W
Apr 14, 2021 - 02:47 PM EDT / 2021.04.14 1847 UTC
Wind: from the ESE (110 degrees) at 14 MPH (12 KT) gusting to 21 MPH (18 KT):0
Visibility: 7 mile(s):0
Sky conditions: clear
Temperature: 80 F (27 C)
Dew Point: 59 F (15 C)
Relative Humidity: 47%
Pressure (altimeter): 30.11 in. Hg (1019 hPa)
ob: KSUA 141847Z 11012G18KT 7SM CLR 27/15 A3011
cycle: 19

Station Type Date Time Source
KSUA TAF 2021/04/14 18:27 UTC NOAA

TAF KSUA 141725Z 1418/1518 11013G19KT P6SM FEW120 SCT250
FM150100 14007KT P6SM FEW150 SCT250
FM151500 18010KT P6SM FEW030 SCT110
AMD NOT SKED

Example: see airport list